China Lake Naws (Armitage Field) Airport
KNID : now visible

Airfield :











YOU CAN JOIN US ON...

 
LOGIN :

Register | Disclaimer

   EN    FR    IT 

 









Legend :    VFR   Marginal VFR   IFR   Intensive IFR   Very Intensive IFR
Visi :
Ceiling :
>= 8 km
>= 3000ft
5 to 8 km
1000 to 3000 ft
1500m to 5 km
500 to 1000 ft
800 to 1500m
200 to 500 ft
< 800m
< 200 ft
Symbols :   Thunderstorms  Fog  Heavy snow  Heavy precipitations  Wind > 20 kt






- Airport Elevation : 2283 ft


KNID - China Lake Naws (Armitage Field)

CURRENT METAR :
  • 091456Z 00000KT 10SM CLR 07/00 A3008 RMK AO2 SLP190 T00670000 53010 $

EXPIRED METARs :
  • 091356Z 00000KT 10SM CLR 08/00 A3006 RMK AO2 SLP181 T00830000 $
  • 091256Z AUTO 32009KT 10SM CLR 08/01 A3005 RMK AO2 SLP179 T00780011 $

TAF TAF KNID
Valid from the 09 at 15:00 until the 10 at 15:00 UTC


0915/1015 VRB05KT 9999 SKC QNH3005INS
BECMG 0918/0920 15006KT 9999 FEW070 FEW250 QNH3003INS
BECMG 0923/1001 21006KT 9999 FEW250 QNH3012INS T14/0923Z TM01/1014Z



MET'MAP, your aeronautical weather chart ! - Copyright ORBIFLY December 2007 - Disclaimer

ORBIFLY MET'MAP TEAM :

Programming & Development : Alexandra Zaïnal
Concept & original design : Baudouin d'Aumeries
Assistance for programming : Marc-Olivier Méhu
Technical & hardware support : Manuel Goepfert

Contact : metmap@orbifly.com




SOURCES & CREDITS :

   NOAA       Earth
Advisory